Time;durP1;ratioP1;P1;durP2;ratioP2;P2;SDS_P1;SDS_P2;PMS_P1;PMS_P2;Temp;Humidity;BMP_temperature;BMP_pressure;BME280_temperature;BME280_humidity;BME280_pressure;Samples;Min_cycle;Max_cycle;Signal;HPM_P1;HPM_P2
2023/05/24 00:01:51;;;;;;;;;;;;;;;13.63;39.38;100922.94;4946399;27;98325;-62
2023/05/24 00:04:18;;;;;;;;;;;;;;;13.61;39.10;100917.00;4940871;27;98213;-62
2023/05/24 00:06:45;;;;;;;;;;;;;;;13.56;39.38;100922.41;4960610;27;98820;-68
2023/05/24 00:09:11;;;;;;;;;;;;;;;13.52;39.33;100916.75;4947381;28;98162;-68
2023/05/24 00:11:38;;;;;;;;;;;;;;;13.52;39.04;100924.88;4942975;28;99631;-62
2023/05/24 00:14:04;;;;;;;;;;;;;;;13.50;39.09;100919.72;4939499;28;98744;-63
2023/05/24 00:16:31;;;;;;;;;;;;;;;13.49;39.05;100920.00;4943271;28;98066;-68
2023/05/24 00:18:58;;;;;;;;;;;;;;;13.49;39.10;100917.31;4931504;27;98496;-62
2023/05/24 00:21:24;;;;;;;;;;;;;;;13.49;39.07;100920.81;4929135;28;99864;-62
2023/05/24 00:23:50;;;;;;;;;;;;;;;13.49;39.11;100909.97;4943884;28;98415;-62
2023/05/24 00:26:17;;;;;;;;;;;;;;;13.49;39.11;100914.59;4959891;27;99687;-62
2023/05/24 00:28:43;;;;;;;;;;;;;;;13.48;39.17;100918.41;4947015;27;100964;-69
2023/05/24 00:31:09;;;;;;;;;;;;;;;13.47;39.13;100917.56;4943310;27;98073;-68
2023/05/24 00:33:35;;;;;;;;;;;;;;;13.46;39.11;100923.25;4962888;27;98001;-68
2023/05/24 00:36:02;;;;;;;;;;;;;;;13.45;38.93;100927.06;4945613;27;98267;-68
2023/05/24 00:38:28;;;;;;;;;;;;;;;13.42;39.28;100914.88;4941496;28;100161;-62
2023/05/24 00:40:59;;;;;;;;;;;;;;;13.42;39.42;100914.06;4944342;27;98407;-64
2023/05/24 00:43:25;;;;;;;;;;;;;;;13.41;39.25;100926.00;4946033;28;99760;-68
2023/05/24 00:46:15;;;;;;;;;;;;;;;13.39;39.09;100917.31;4960413;28;99485;-62
2023/05/24 00:48:41;;;;;;;;;;;;;;;13.35;39.05;100917.06;4959690;28;98115;-62
2023/05/24 00:51:08;;;;;;;;;;;;;;;13.32;39.07;100925.72;4940622;27;98115;-68
2023/05/24 00:53:35;;;;;;;;;;;;;;;13.30;39.29;100927.09;4959429;28;97888;-63
2023/05/24 00:56:02;;;;;;;;;;;;;;;13.26;39.03;100927.63;4942636;27;98228;-68
2023/05/24 00:58:32;;;;;;;;;;;;;;;13.25;39.32;100922.50;4944761;27;97957;-62
2023/05/24 01:00:58;;;;;;;;;;;;;;;13.27;39.01;100925.75;4946880;27;99665;-69
2023/05/24 01:03:28;;;;;;;;;;;;;;;13.31;39.06;100926.00;4931323;27;97952;-62
2023/05/24 01:06:06;;;;;;;;;;;;;;;13.36;39.10;100925.97;4960209;28;98298;-62
2023/05/24 01:08:38;;;;;;;;;;;;;;;13.40;38.98;100933.31;4945450;27;98126;-62
2023/05/24 01:11:07;;;;;;;;;;;;;;;13.44;39.45;100917.28;4977386;27;98319;-62
2023/05/24 01:13:53;;;;;;;;;;;;;;;13.48;39.02;100929.22;4931786;27;98285;-68
2023/05/24 01:16:24;;;;;;;;;;;;;;;13.50;39.24;100924.34;4922249;28;98193;-68
2023/05/24 01:18:55;;;;;;;;;;;;;;;13.49;39.27;100920.81;4906961;28;98120;-62
2023/05/24 01:21:49;;;;;;;;;;;;;;;13.51;39.32;100931.38;4937448;28;100351;-62
2023/05/24 01:24:42;;;;;;;;;;;;;;;13.52;39.02;100927.59;4958821;28;98188;-62
2023/05/24 01:27:10;;;;;;;;;;;;;;;13.50;39.11;100925.13;4938397;28;98091;-63
2023/05/24 01:29:37;;;;;;;;;;;;;;;13.50;39.32;100927.84;4922852;28;98240;-62
2023/05/24 01:32:03;;;;;;;;;;;;;;;13.49;39.33;100925.44;4923374;28;98270;-62
2023/05/24 01:34:30;;;;;;;;;;;;;;;13.48;39.35;100932.75;4921479;28;98063;-68
2023/05/24 01:36:56;;;;;;;;;;;;;;;13.46;39.37;100931.38;4913516;28;98210;-63
2023/05/24 01:39:26;;;;;;;;;;;;;;;13.44;39.35;100938.97;4901934;28;97964;-63
2023/05/24 01:42:00;;;;;;;;;;;;;;;13.38;39.02;100938.16;4919793;28;98187;-62
2023/05/24 01:44:55;;;;;;;;;;;;;;;13.35;39.17;100935.19;4939247;28;99812;-69
2023/05/24 01:47:27;;;;;;;;;;;;;;;13.31;39.16;100936.84;4938008;28;98133;-63
2023/05/24 01:49:58;;;;;;;;;;;;;;;13.27;39.43;100940.09;4956203;28;98056;-63
2023/05/24 01:52:27;;;;;;;;;;;;;;;13.25;39.18;100934.16;4927867;28;98146;-62
2023/05/24 01:54:55;;;;;;;;;;;;;;;13.23;39.35;100940.91;4929219;28;99486;-62
2023/05/24 01:57:21;;;;;;;;;;;;;;;13.21;39.40;100937.66;4925185;28;98008;-62
2023/05/24 01:59:48;;;;;;;;;;;;;;;13.19;39.20;100937.09;4920321;28;99577;-64
2023/05/24 02:02:14;;;;;;;;;;;;;;;13.15;39.14;100934.13;4928412;28;98018;-62
2023/05/24 02:04:40;;;;;;;;;;;;;;;13.13;39.45;100939.00;4925577;28;98317;-62
2023/05/24 02:07:06;;;;;;;;;;;;;;;13.10;39.44;100939.56;4924174;28;98006;-68
2023/05/24 02:09:33;;;;;;;;;;;;;;;13.09;39.37;100942.53;4944645;28;97976;-63
2023/05/24 02:11:59;;;;;;;;;;;;;;;13.08;39.63;100941.69;4942803;28;98852;-68
2023/05/24 02:14:26;;;;;;;;;;;;;;;13.06;39.34;100943.88;4904116;28;97994;-68
2023/05/24 02:16:52;;;;;;;;;;;;;;;13.03;39.22;100941.72;4978032;27;98904;-62
2023/05/24 02:19:18;;;;;;;;;;;;;;;13.01;39.13;100949.31;4943754;28;98123;-68
2023/05/24 02:21:46;;;;;;;;;;;;;;;12.98;39.13;100952.56;4943669;28;116919;-69
2023/05/24 02:24:13;;;;;;;;;;;;;;;12.96;39.16;100943.88;4950567;28;98191;-69
2023/05/24 02:26:39;;;;;;;;;;;;;;;12.93;39.45;100939.84;4947040;28;98557;-62
2023/05/24 02:29:05;;;;;;;;;;;;;;;12.90;39.12;100944.97;4977732;28;124751;-62
2023/05/24 02:31:32;;;;;;;;;;;;;;;12.89;39.22;100946.88;4948699;28;98149;-62
2023/05/24 02:33:58;;;;;;;;;;;;;;;12.84;39.17;100944.16;4940615;28;98031;-68
2023/05/24 02:36:24;;;;;;;;;;;;;;;12.81;39.22;100942.00;4945794;28;98141;-68
2023/05/24 02:38:51;;;;;;;;;;;;;;;12.77;39.23;100946.31;4960647;28;99416;-63
2023/05/24 02:41:18;;;;;;;;;;;;;;;12.74;39.24;100950.38;4932324;28;98187;-68
2023/05/24 02:43:45;;;;;;;;;;;;;;;12.71;39.21;100956.31;4954648;28;98532;-62
2023/05/24 02:46:12;;;;;;;;;;;;;;;12.67;39.36;100952.53;4945388;28;99151;-63
2023/05/24 02:48:38;;;;;;;;;;;;;;;12.66;39.36;100940.09;4976381;28;98215;-63
2023/05/24 02:51:04;;;;;;;;;;;;;;;12.66;39.22;100948.22;4960965;28;98987;-64
2023/05/24 02:53:31;;;;;;;;;;;;;;;12.64;39.23;100942.25;4948391;28;99590;-63
2023/05/24 02:55:57;;;;;;;;;;;;;;;12.64;39.15;100952.25;4961137;28;99705;-63
2023/05/24 02:58:24;;;;;;;;;;;;;;;12.62;39.25;100949.03;4942105;28;98041;-63
2023/05/24 03:00:50;;;;;;;;;;;;;;;12.60;39.19;100949.28;4961742;28;98481;-69
2023/05/24 03:03:17;;;;;;;;;;;;;;;12.60;39.16;100948.47;4933371;28;97915;-70
2023/05/24 03:05:43;;;;;;;;;;;;;;;12.58;39.36;100946.06;4945818;28;98393;-63
2023/05/24 03:08:09;;;;;;;;;;;;;;;12.55;39.22;100941.19;4945651;28;98093;-68
2023/05/24 03:10:35;;;;;;;;;;;;;;;12.53;39.27;100946.84;4927515;28;98160;-62
2023/05/24 03:13:03;;;;;;;;;;;;;;;12.52;39.20;100944.41;4961660;28;98198;-62
2023/05/24 03:15:29;;;;;;;;;;;;;;;12.49;39.30;100945.75;4973355;27;97989;-62
2023/05/24 03:17:55;;;;;;;;;;;;;;;12.48;39.19;100956.84;4940956;27;97965;-69
2023/05/24 03:20:23;;;;;;;;;;;;;;;12.45;39.18;100951.97;4948660;27;99560;-68
2023/05/24 03:22:49;;;;;;;;;;;;;;;12.42;39.23;100958.72;4947042;27;98198;-62
2023/05/24 03:25:16;;;;;;;;;;;;;;;12.43;38.97;100967.66;4945012;28;98151;-68
2023/05/24 03:27:42;;;;;;;;;;;;;;;12.42;39.25;100957.94;4926182;27;99622;-63
2023/05/24 03:30:09;;;;;;;;;;;;;;;12.41;39.07;100958.97;4944109;27;98044;-68
2023/05/24 03:32:35;;;;;;;;;;;;;;;12.41;39.06;100958.97;4962816;27;98265;-63
2023/05/24 03:35:02;;;;;;;;;;;;;;;12.44;39.08;100961.16;4926871;28;98253;-62
2023/05/24 03:37:28;;;;;;;;;;;;;;;12.45;38.87;100958.19;4940896;27;98112;-69
2023/05/24 03:39:54;;;;;;;;;;;;;;;12.46;39.18;100967.94;4961665;27;98312;-62
2023/05/24 03:42:21;;;;;;;;;;;;;;;12.46;39.08;100964.44;4945614;27;99075;-68
2023/05/24 03:44:47;;;;;;;;;;;;;;;12.46;39.11;100967.13;4944225;27;98285;-68
2023/05/24 03:47:13;;;;;;;;;;;;;;;12.43;39.22;100970.34;4943569;27;98304;-62
2023/05/24 03:49:39;;;;;;;;;;;;;;;12.40;38.93;100968.19;4945225;27;98465;-68
2023/05/24 03:52:05;;;;;;;;;;;;;;;12.39;39.13;100967.38;4941531;27;97986;-62
2023/05/24 03:54:32;;;;;;;;;;;;;;;12.39;39.25;100970.06;4969495;27;98944;-62
2023/05/24 03:56:58;;;;;;;;;;;;;;;12.39;38.98;100972.78;4946243;27;99927;-68
2023/05/24 03:59:24;;;;;;;;;;;;;;;12.38;39.06;100976.56;4946122;28;98276;-62
2023/05/24 04:01:50;;;;;;;;;;;;;;;12.34;39.13;100970.06;4927282;27;99587;-62
2023/05/24 04:04:17;;;;;;;;;;;;;;;12.33;39.10;100979.25;4928651;27;99787;-62
2023/05/24 04:06:44;;;;;;;;;;;;;;;12.35;39.04;100977.09;4927254;27;98135;-63
2023/05/24 04:09:10;;;;;;;;;;;;;;;12.40;38.98;100979.00;4945045;27;98267;-68
2023/05/24 04:11:36;;;;;;;;;;;;;;;12.47;38.85;100984.97;4941989;27;98076;-68
2023/05/24 04:14:02;;;;;;;;;;;;;;;12.52;38.91;100993.06;4944796;28;99216;-65
2023/05/24 04:16:32;;;;;;;;;;;;;;;12.55;38.83;100995.25;4953826;27;98034;-68
2023/05/24 04:19:00;;;;;;;;;;;;;;;12.58;38.81;100997.44;4948545;27;98161;-62
2023/05/24 04:21:28;;;;;;;;;;;;;;;12.61;38.75;100993.34;4964502;27;98913;-69
2023/05/24 04:23:55;;;;;;;;;;;;;;;12.67;38.69;101000.41;4946065;27;98199;-63
2023/05/24 04:26:21;;;;;;;;;;;;;;;12.71;38.85;100991.50;4936066;28;98126;-63
2023/05/24 04:28:47;;;;;;;;;;;;;;;12.74;38.65;100999.06;4973051;27;99005;-63
2023/05/24 04:31:15;;;;;;;;;;;;;;;12.76;38.76;101001.50;4943922;27;98353;-69
2023/05/24 04:33:41;;;;;;;;;;;;;;;12.75;38.70;101005.28;4917342;28;99305;-68
2023/05/24 04:36:10;;;;;;;;;;;;;;;12.76;38.83;101005.00;4943214;28;98055;-63
2023/05/24 04:38:37;;;;;;;;;;;;;;;12.77;38.76;101009.38;4940366;27;98159;-69
2023/05/24 04:41:04;;;;;;;;;;;;;;;12.77;38.77;101009.38;4942697;27;98160;-63
2023/05/24 04:43:31;;;;;;;;;;;;;;;12.78;38.89;101015.59;4945232;27;97916;-69
2023/05/24 04:45:57;;;;;;;;;;;;;;;12.83;38.77;101017.47;4943023;27;98118;-63
2023/05/24 04:48:24;;;;;;;;;;;;;;;12.86;38.70;101025.06;4962270;28;98132;-69
2023/05/24 04:50:53;;;;;;;;;;;;;;;12.90;38.92;101018.03;4955786;27;98651;-69
2023/05/24 04:53:20;;;;;;;;;;;;;;;12.96;38.59;101019.66;4971213;27;98283;-69
2023/05/24 04:55:46;;;;;;;;;;;;;;;13.02;38.47;101024.00;4940596;28;98211;-69
2023/05/24 04:58:13;;;;;;;;;;;;;;;13.08;38.62;101022.09;4953886;27;100391;-63
2023/05/24 05:00:39;;;;;;;;;;;;;;;13.13;38.74;101031.03;4939334;27;99103;-63
2023/05/24 05:03:05;;;;;;;;;;;;;;;13.18;38.58;101031.03;4953305;28;98374;-69
2023/05/24 05:05:32;;;;;;;;;;;;;;;13.21;38.47;101029.69;4943658;28;98767;-69
2023/05/24 05:07:58;;;;;;;;;;;;;;;13.26;38.70;101029.69;4940351;27;98459;-63
2023/05/24 05:10:25;;;;;;;;;;;;;;;13.31;38.63;101035.09;4941251;27;98360;-63
2023/05/24 05:12:51;;;;;;;;;;;;;;;13.35;38.36;101041.59;4947458;27;98259;-63
2023/05/24 05:15:17;;;;;;;;;;;;;;;13.39;38.70;101042.69;4944944;27;98818;-69
2023/05/24 05:17:44;;;;;;;;;;;;;;;13.46;38.56;101037.00;4946404;27;98041;-69
2023/05/24 05:20:10;;;;;;;;;;;;;;;13.51;38.52;101042.41;4958863;27;98008;-63
2023/05/24 05:22:36;;;;;;;;;;;;;;;13.56;38.31;101042.41;4945223;28;98941;-62
2023/05/24 05:25:03;;;;;;;;;;;;;;;13.61;38.28;101039.69;4936838;27;98691;-69
2023/05/24 05:27:29;;;;;;;;;;;;;;;13.68;38.47;101051.06;4963410;28;98431;-69
2023/05/24 05:29:55;;;;;;;;;;;;;;;13.77;37.97;101055.91;4960749;27;98239;-63
2023/05/24 05:32:22;;;;;;;;;;;;;;;13.84;38.24;101061.88;4941737;27;98297;-62
2023/05/24 05:34:48;;;;;;;;;;;;;;;13.92;38.34;101053.19;4929256;27;99740;-69
2023/05/24 05:37:14;;;;;;;;;;;;;;;14.03;38.27;101051.22;4950946;27;98217;-69
2023/05/24 05:39:40;;;;;;;;;;;;;;;14.13;38.18;101060.13;4945002;27;98182;-63
2023/05/24 05:42:07;;;;;;;;;;;;;;;14.24;38.02;101063.63;4962794;27;98020;-69
2023/05/24 05:44:33;;;;;;;;;;;;;;;14.36;38.19;101052.47;4947480;27;98451;-69
2023/05/24 05:46:59;;;;;;;;;;;;;;;14.47;38.19;101057.56;4933630;27;99740;-69
2023/05/24 05:49:25;;;;;;;;;;;;;;;14.57;37.72;101067.56;4977968;27;98223;-63
2023/05/24 05:51:51;;;;;;;;;;;;;;;14.63;38.07;101063.75;4943171;27;98250;-63
2023/05/24 05:54:18;;;;;;;;;;;;;;;14.71;37.68;101063.16;4945895;28;98943;-63
2023/05/24 05:56:46;;;;;;;;;;;;;;;14.77;37.72;101063.13;4949585;27;98303;-63
2023/05/24 05:59:13;;;;;;;;;;;;;;;14.79;38.14;101058.25;4936480;27;99539;-63
2023/05/24 06:01:40;;;;;;;;;;;;;;;14.81;38.12;101064.19;4943119;28;98102;-68
2023/05/24 06:04:06;;;;;;;;;;;;;;;14.88;37.82;101065.50;4943569;27;98492;-63
2023/05/24 06:06:32;;;;;;;;;;;;;;;14.95;38.05;101059.75;4933925;27;98041;-63
2023/05/24 06:09:02;;;;;;;;;;;;;;;15.01;38.18;101061.31;4943453;27;97867;-63
2023/05/24 06:11:28;;;;;;;;;;;;;;;15.10;37.81;101066.97;4945599;28;97905;-69
2023/05/24 06:13:54;;;;;;;;;;;;;;;15.15;38.03;101067.75;4959392;28;98374;-63
2023/05/24 06:16:20;;;;;;;;;;;;;;;15.15;37.74;101070.47;4941126;28;100229;-63
2023/05/24 06:18:47;;;;;;;;;;;;;;;15.17;37.89;101072.91;4961303;27;98088;-63
2023/05/24 06:21:16;;;;;;;;;;;;;;;15.21;38.00;101074.78;4947382;27;98131;-63
2023/05/24 06:23:43;;;;;;;;;;;;;;;15.28;37.75;101071.72;4944074;28;99185;-63
2023/05/24 06:26:09;;;;;;;;;;;;;;;15.40;37.93;101068.63;4945485;27;98421;-63
2023/05/24 06:28:35;;;;;;;;;;;;;;;15.56;37.67;101070.13;4964227;27;97933;-69
2023/05/24 06:31:02;;;;;;;;;;;;;;;15.67;37.48;101073.56;4944704;27;98676;-63
2023/05/24 06:33:30;;;;;;;;;;;;;;;15.69;37.80;101074.13;4959542;28;98509;-69
2023/05/24 06:35:56;;;;;;;;;;;;;;;15.71;37.70;101078.16;4964460;27;98245;-63
2023/05/24 06:38:22;;;;;;;;;;;;;;;15.74;37.55;101084.13;4948901;27;98545;-69
2023/05/24 06:40:49;;;;;;;;;;;;;;;15.72;38.00;101078.97;4953242;27;98055;-63
2023/05/24 06:43:16;;;;;;;;;;;;;;;15.68;37.71;101081.47;4963687;28;98089;-63
2023/05/24 06:45:42;;;;;;;;;;;;;;;15.67;37.73;101087.16;4944716;27;98041;-69
2023/05/24 06:48:08;;;;;;;;;;;;;;;15.66;37.75;101086.34;4946849;28;98069;-63
2023/05/24 06:50:36;;;;;;;;;;;;;;;15.67;37.76;101087.16;4941515;28;98353;-63
2023/05/24 06:53:02;;;;;;;;;;;;;;;15.69;38.04;101085.00;4960522;27;98731;-63
2023/05/24 06:55:28;;;;;;;;;;;;;;;15.73;37.78;101093.38;4960814;27;98187;-63
2023/05/24 06:57:55;;;;;;;;;;;;;;;15.75;38.05;101100.13;4946815;27;100276;-69
2023/05/24 07:00:21;;;;;;;;;;;;;;;15.74;37.66;101106.66;4960305;27;98001;-63
2023/05/24 07:02:48;;;;;;;;;;;;;;;15.74;38.24;101111.31;4946193;27;98100;-69
2023/05/24 07:05:14;;;;;;;;;;;;;;;15.78;37.83;101115.06;4941416;27;99783;-69
2023/05/24 07:07:41;;;;;;;;;;;;;;;15.77;38.05;101116.16;4941457;27;98099;-63
2023/05/24 07:10:09;;;;;;;;;;;;;;;15.73;37.70;101115.94;4946159;28;98205;-63
2023/05/24 07:12:38;;;;;;;;;;;;;;;15.71;37.81;101127.06;4944858;27;98112;-63
2023/05/24 07:15:05;;;;;;;;;;;;;;;15.74;38.02;101111.31;4920868;28;98130;-69
2023/05/24 07:17:31;;;;;;;;;;;;;;;15.80;37.78;101115.56;4921018;28;98074;-69
2023/05/24 07:19:59;;;;;;;;;;;;;;;15.86;37.48;101120.69;4927745;28;99459;-63
2023/05/24 07:22:27;;;;;;;;;;;;;;;15.91;37.33;101123.34;4945013;28;98301;-63
2023/05/24 07:24:53;;;;;;;;;;;;;;;15.95;37.90;101131.75;4926783;28;99250;-62
2023/05/24 07:27:21;;;;;;;;;;;;;;;16.01;37.76;101135.22;4930655;28;98186;-68
2023/05/24 07:29:49;;;;;;;;;;;;;;;16.07;37.54;101128.63;4925782;28;98351;-68
2023/05/24 07:32:15;;;;;;;;;;;;;;;16.09;37.36;101131.88;4926723;28;98293;-62
2023/05/24 07:34:42;;;;;;;;;;;;;;;16.09;37.54;101134.59;4944454;28;99382;-69
2023/05/24 07:37:08;;;;;;;;;;;;;;;16.09;37.65;101137.31;4936331;28;98042;-69
2023/05/24 07:39:34;;;;;;;;;;;;;;;16.07;37.80;101137.63;4943171;28;98112;-68
2023/05/24 07:42:01;;;;;;;;;;;;;;;16.11;37.57;101137.84;4941248;28;98335;-62
2023/05/24 07:44:28;;;;;;;;;;;;;;;16.14;37.60;101135.34;4926927;28;98120;-69
2023/05/24 07:46:54;;;;;;;;;;;;;;;16.17;37.74;101140.22;4937801;28;98119;-62
2023/05/24 07:49:21;;;;;;;;;;;;;;;16.21;37.55;101135.00;4910444;28;98244;-62
2023/05/24 07:51:47;;;;;;;;;;;;;;;16.22;37.73;101146.69;4940429;28;98430;-69
2023/05/24 07:54:14;;;;;;;;;;;;;;;16.24;37.50;101144.50;4955380;28;98128;-69
2023/05/24 07:56:43;;;;;;;;;;;;;;;16.28;37.49;101143.66;4928009;28;98893;-62
2023/05/24 07:59:10;;;;;;;;;;;;;;;16.35;37.47;101144.13;4928423;28;97967;-62
2023/05/24 08:01:36;;;;;;;;;;;;;;;16.45;37.58;101137.72;4912478;28;98118;-69
2023/05/24 08:04:02;;;;;;;;;;;;;;;16.54;37.31;101135.16;4924051;28;98307;-67
2023/05/24 08:06:30;;;;;;;;;;;;;;;16.60;37.33;101140.28;4944138;28;98053;-62
2023/05/24 08:08:57;;;;;;;;;;;;;;;16.64;37.40;101141.31;4941999;28;98267;-62
2023/05/24 08:11:23;;;;;;;;;;;;;;;16.76;37.25;101145.56;4924211;28;99589;-62
2023/05/24 08:13:50;;;;;;;;;;;;;;;16.88;37.16;101137.75;4922754;28;99517;-62
2023/05/24 08:16:16;;;;;;;;;;;;;;;17.00;37.04;101140.06;4944809;28;98181;-62
2023/05/24 08:18:43;;;;;;;;;;;;;;;17.09;36.97;101138.28;4951865;28;98430;-62
2023/05/24 08:21:09;;;;;;;;;;;;;;;17.15;37.17;101135.19;4941334;27;98010;-63
2023/05/24 08:23:35;;;;;;;;;;;;;;;17.21;37.07;101138.63;4944761;27;98078;-69
2023/05/24 08:26:04;;;;;;;;;;;;;;;17.31;37.09;101143.94;4946445;27;98469;-62
2023/05/24 08:28:31;;;;;;;;;;;;;;;17.37;37.08;101142.78;4962294;27;98120;-62
2023/05/24 08:30:58;;;;;;;;;;;;;;;17.34;37.02;101129.72;4927583;27;98330;-62
2023/05/24 08:33:24;;;;;;;;;;;;;;;17.25;37.13;101136.13;4946166;27;98293;-63
2023/05/24 08:35:51;;;;;;;;;;;;;;;17.13;37.30;101140.13;4959653;28;98320;-62
2023/05/24 08:38:17;;;;;;;;;;;;;;;17.04;37.31;101150.06;4940542;28;98298;-69
2023/05/24 08:40:43;;;;;;;;;;;;;;;16.97;37.49;101157.78;4945866;27;98035;-62
2023/05/24 08:43:11;;;;;;;;;;;;;;;16.92;37.51;101155.13;4974640;27;98292;-69
2023/05/24 08:45:38;;;;;;;;;;;;;;;16.89;37.44;101158.44;4947698;27;98052;-69
2023/05/24 08:48:06;;;;;;;;;;;;;;;16.86;37.42;101159.84;4944363;27;98127;-69
2023/05/24 08:50:33;;;;;;;;;;;;;;;16.81;37.63;101151.72;4946598;27;98208;-68
2023/05/24 08:53:01;;;;;;;;;;;;;;;16.75;37.48;101154.81;4945563;27;98119;-68
2023/05/24 08:55:28;;;;;;;;;;;;;;;16.73;37.34;101159.72;4944418;27;97986;-62
2023/05/24 08:57:55;;;;;;;;;;;;;;;16.75;37.47;101158.34;4946741;27;98338;-69
2023/05/24 09:00:21;;;;;;;;;;;;;;;16.79;37.39;101158.59;4946247;27;98144;-62
2023/05/24 09:02:47;;;;;;;;;;;;;;;16.80;37.44;101171.09;4940768;27;98291;-62
2023/05/24 09:05:20;;;;;;;;;;;;;;;16.81;37.35;101162.63;4959794;27;98330;-62
2023/05/24 09:07:47;;;;;;;;;;;;;;;16.82;37.38;101174.31;4942673;27;98834;-69
2023/05/24 09:10:13;;;;;;;;;;;;;;;16.86;37.38;101168.00;4943274;27;98011;-67
2023/05/24 09:12:42;;;;;;;;;;;;;;;16.98;37.30;101169.47;4949383;27;97978;-62
2023/05/24 09:15:09;;;;;;;;;;;;;;;17.11;37.06;101171.50;4948754;27;97968;-69
2023/05/24 09:17:36;;;;;;;;;;;;;;;17.20;37.02;101172.44;4949839;27;98146;-62
2023/05/24 09:20:05;;;;;;;;;;;;;;;17.25;36.93;101171.53;4943954;28;99889;-63
2023/05/24 09:22:32;;;;;;;;;;;;;;;17.30;36.91;101171.50;4935899;27;98239;-69
2023/05/24 09:25:01;;;;;;;;;;;;;;;17.32;36.95;101172.78;4965746;27;97859;-63
2023/05/24 09:27:27;;;;;;;;;;;;;;;17.36;37.01;101173.03;4947556;27;97877;-69
2023/05/24 09:29:54;;;;;;;;;;;;;;;17.42;37.05;101172.66;4944136;27;98161;-62
2023/05/24 09:32:23;;;;;;;;;;;;;;;17.49;36.79;101176.91;4964314;27;97969;-62
2023/05/24 09:34:51;;;;;;;;;;;;;;;17.55;36.97;101176.53;4946318;27;98064;-62
2023/05/24 09:37:23;;;;;;;;;;;;;;;17.60;36.90;101173.72;4950190;27;97907;-62
2023/05/24 09:39:52;;;;;;;;;;;;;;;17.61;37.00;101172.63;4949652;27;98361;-69
2023/05/24 09:42:23;;;;;;;;;;;;;;;17.62;36.98;101171.53;4949169;27;98356;-62
2023/05/24 09:45:10;;;;;;;;;;;;;;;17.74;36.78;101167.53;4961289;28;99701;-69
2023/05/24 09:47:37;;;;;;;;;;;;;;;17.83;36.82;101161.09;4960544;27;98247;-69
2023/05/24 09:50:05;;;;;;;;;;;;;;;17.88;36.67;101163.75;4950751;27;98169;-69
2023/05/24 09:52:35;;;;;;;;;;;;;;;17.90;36.76;101171.63;4946512;27;99319;-69
2023/05/24 09:55:10;;;;;;;;;;;;;;;17.87;36.74;101174.94;4948006;28;97958;-63
2023/05/24 09:57:36;;;;;;;;;;;;;;;17.84;36.90;101187.28;4950806;27;98506;-62
2023/05/24 10:00:13;;;;;;;;;;;;;;;17.83;36.88;101185.66;4931706;27;98989;-69
2023/05/24 10:02:39;;;;;;;;;;;;;;;17.79;36.85;101181.91;4944796;27;98719;-69
2023/05/24 10:05:06;;;;;;;;;;;;;;;17.77;36.84;101183.31;4946237;27;98073;-69
2023/05/24 10:07:33;;;;;;;;;;;;;;;17.79;36.87;101190.06;4958767;27;98363;-62
2023/05/24 10:09:59;;;;;;;;;;;;;;;17.91;36.90;101182.22;4944656;27;98096;-62
2023/05/24 10:12:25;;;;;;;;;;;;;;;18.15;36.66;101182.06;4947057;27;98657;-69
2023/05/24 10:14:52;;;;;;;;;;;;;;;18.63;36.09;101181.72;4943641;28;106457;-62
2023/05/24 10:17:18;;;;;;;;;;;;;;;19.04;36.10;101182.81;4948057;27;98009;-69
2023/05/24 10:19:45;;;;;;;;;;;;;;;19.49;35.38;101164.56;4964774;27;97907;-68
2023/05/24 10:22:11;;;;;;;;;;;;;;;19.89;35.40;101172.09;4957616;27;100047;-62
2023/05/24 10:24:45;;;;;;;;;;;;;;;20.23;35.17;101164.03;4943754;27;98979;-69
2023/05/24 10:27:13;;;;;;;;;;;;;;;20.38;35.25;101171.03;4961193;27;99572;-63
2023/05/24 10:30:12;;;;;;;;;;;;;;;20.58;35.12;101170.47;4962452;27;97930;-69
2023/05/24 10:32:38;;;;;;;;;;;;;;;22.73;33.43;101169.72;4957495;27;97753;-63
2023/05/24 10:35:05;;;;;;;;;;;;;;;24.16;32.04;101166.72;4964060;27;98061;-69
2023/05/24 10:37:31;;;;;;;;;;;;;;;25.12;32.01;101171.75;4981644;27;101630;-62
2023/05/24 10:39:58;;;;;;;;;;;;;;;28.77;29.13;101168.81;4960958;27;97839;-62
2023/05/24 10:42:24;;;;;;;;;;;;;;;28.66;29.81;101174.19;4964569;27;97952;-62
2023/05/24 10:44:51;;;;;;;;;;;;;;;28.13;31.30;101182.41;4948271;27;98097;-62
2023/05/24 10:47:16;;;;;;;;;;;;;;;26.64;32.96;101184.50;4945915;27;98432;-62
2023/05/24 10:49:56;;;;;;;;;;;;;;;26.34;33.11;101175.06;4943976;27;115488;-62
2023/05/24 10:52:32;;;;;;;;;;;;;;;26.73;32.84;101187.09;4962968;27;98518;-65
2023/05/24 10:55:08;;;;;;;;;;;;;;;26.55;33.06;101181.13;4970733;27;98393;-62
2023/05/24 10:57:35;;;;;;;;;;;;;;;29.47;30.52;101182.00;4926614;27;98134;-62
2023/05/24 11:00:19;;;;;;;;;;;;;;;30.82;29.88;101180.88;4946548;28;98014;-68
2023/05/24 11:02:53;;;;;;;;;;;;;;;32.18;29.13;101166.19;4966465;28;98356;-62
2023/05/24 11:05:20;;;;;;;;;;;;;;;31.36;30.73;101176.38;4952194;27;98140;-62
2023/05/24 11:07:47;;;;;;;;;;;;;;;29.99;32.08;101180.22;4943004;27;98033;-68
2023/05/24 11:10:15;;;;;;;;;;;;;;;30.47;31.79;101176.66;4942313;27;98195;-69
2023/05/24 11:12:43;;;;;;;;;;;;;;;32.38;30.17;101177.72;4944191;27;97905;-62
2023/05/24 11:15:09;;;;;;;;;;;;;;;33.14;30.02;101181.19;4946775;28;97949;-69
2023/05/24 11:18:08;;;;;;;;;;;;;;;33.81;29.36;101176.47;4942891;27;98120;-69
2023/05/24 11:20:35;;;;;;;;;;;;;;;32.11;31.34;101159.81;4949512;27;98782;-69
2023/05/24 11:23:11;;;;;;;;;;;;;;;30.30;33.42;101172.53;4941951;27;99434;-62
2023/05/24 11:25:40;;;;;;;;;;;;;;;29.92;33.41;101160.69;4958415;27;98155;-63
2023/05/24 11:28:10;;;;;;;;;;;;;;;30.76;32.24;101164.53;4961361;27;98324;-69
2023/05/24 11:30:40;;;;;;;;;;;;;;;29.14;33.96;101173.69;4944560;28;98872;-63
2023/05/24 11:33:21;;;;;;;;;;;;;;;27.99;34.90;101169.13;4947632;27;100080;-62
2023/05/24 11:35:49;;;;;;;;;;;;;;;29.31;32.78;101159.22;4963913;28;97937;-62
2023/05/24 11:38:15;;;;;;;;;;;;;;;30.06;32.06;101155.28;4959673;27;98031;-69
2023/05/24 11:40:44;;;;;;;;;;;;;;;30.35;31.92;101157.50;4946024;27;98356;-62
2023/05/24 11:43:15;;;;;;;;;;;;;;;30.69;31.97;101160.88;4946320;27;97816;-62
2023/05/24 11:45:50;;;;;;;;;;;;;;;31.15;31.76;101158.38;4943517;27;98487;-69
2023/05/24 11:48:17;;;;;;;;;;;;;;;31.77;31.28;101154.59;4933243;28;99629;-62
2023/05/24 11:50:50;;;;;;;;;;;;;;;29.83;33.16;101161.00;4931768;27;98105;-62
2023/05/24 11:53:19;;;;;;;;;;;;;;;28.87;34.30;101166.16;4946771;27;99231;-62
2023/05/24 11:55:45;;;;;;;;;;;;;;;30.94;31.83;101156.31;4943589;27;97909;-71
2023/05/24 11:58:22;;;;;;;;;;;;;;;29.97;32.99;101160.31;4944038;27;99146;-69
2023/05/24 12:00:48;;;;;;;;;;;;;;;27.98;34.75;101166.72;4961570;28;98322;-62
2023/05/24 12:03:15;;;;;;;;;;;;;;;27.15;35.27;101165.09;4945067;27;98085;-68
2023/05/24 12:05:41;;;;;;;;;;;;;;;26.83;35.19;101150.56;4944662;28;98215;-68
2023/05/24 12:08:11;;;;;;;;;;;;;;;29.52;31.96;101156.69;4962113;27;98140;-67
2023/05/24 12:10:38;;;;;;;;;;;;;;;30.38;31.66;101157.53;4944628;28;100012;-62
2023/05/24 12:13:05;;;;;;;;;;;;;;;30.84;31.42;101159.81;4931100;27;100109;-69
2023/05/24 12:15:31;;;;;;;;;;;;;;;29.90;32.64;101167.78;4947192;27;98183;-69
2023/05/24 12:17:58;;;;;;;;;;;;;;;30.15;32.58;101149.38;4941748;27;98151;-69
2023/05/24 12:20:27;;;;;;;;;;;;;;;30.83;31.68;101151.88;4963931;27;98855;-69
2023/05/24 12:22:54;;;;;;;;;;;;;;;31.01;31.94;101152.75;4960358;28;97982;-62
2023/05/24 12:25:21;;;;;;;;;;;;;;;30.18;32.74;101150.59;4946653;28;97884;-69
2023/05/24 12:27:54;;;;;;;;;;;;;;;29.39;33.42;101149.00;4929775;27;97987;-62
2023/05/24 12:30:25;;;;;;;;;;;;;;;28.44;34.06;101156.41;4946551;27;98826;-62
2023/05/24 12:32:54;;;;;;;;;;;;;;;27.70;34.86;101153.91;4956322;27;99475;-69
2023/05/24 12:35:21;;;;;;;;;;;;;;;27.17;35.07;101153.69;4948056;27;98222;-68
2023/05/24 12:37:47;;;;;;;;;;;;;;;26.71;34.90;101158.97;4943967;27;98160;-62
2023/05/24 12:40:20;;;;;;;;;;;;;;;26.33;35.14;101157.69;4943180;27;98046;-62